Flight Track Log - Related Links

Times and Time Zones

All times are in EDT time to prevent confusion due to time zone crossing. See the N53NW flight status page for this flight to view local times or setup timezone preferences in your user account.

Time Position Orientation Groundspeed Altitude Reporting Facility
EDT Latitude Longitude Course Direction KTS MPH feet Rate Location/Type
Tue 01:27:55 PM 34.7167 -92.2400 224° Southwest 184 212 1,100  Level Memphis Center
Tue 01:28:44 PM 34.6847 -92.2775 224° Southwest 232 267 3,700 3,250 Climbing Memphis Center
Tue 01:29:07 PM 34.6814 -92.3028 261° West 250 288 5,000 4,000 Climbing Memphis Center
Tue 01:29:44 PM 34.6714 -92.3542 257° West 250 288 7,700 4,258 Climbing Memphis Center
Tue 01:30:09 PM 34.6650 -92.3828 255° West 245 282 9,400 3,655 Climbing Memphis Center
Tue 01:31:11 PM 34.6478 -92.4689 256° West 256 295 13,000 3,435 Climbing Memphis Center
Tue 01:32:13 PM 34.6450 -92.5592 268° West 280 322 16,500 3,000 Climbing Memphis Center
Tue 01:33:15 PM 34.7036 -92.6181 320° Northwest 273 314 19,200 2,806 Climbing Memphis Center
Tue 01:34:17 PM 34.7758 -92.6867 322° Northwest 274 315 22,300 2,613 Climbing Memphis Center
Tue 01:35:19 PM 34.8381 -92.7458 322° Northwest 280 322 24,600 2,177 Climbing Memphis Center
Tue 01:36:21 PM 34.9022 -92.8086 321° Northwest 291 335 26,800 2,129 Climbing Memphis Center
Tue 01:37:23 PM 34.9683 -92.8711 322° Northwest 298 343 29,000 1,548 Climbing Memphis Center
Tue 01:38:25 PM 35.0339 -92.9356 321° Northwest 300 345 30,000 484 Climbing Memphis Center
Tue 01:39:27 PM 35.1108 -93.0092 322° Northwest 338 389 30,000  Level Memphis Center
Tue 01:40:29 PM 35.2036 -93.0994 322° Northwest 360 414 30,000  Level Memphis Center
Tue 01:41:31 PM 35.2825 -93.1747 322° Northwest 360 414 30,000  Level Memphis Center
Tue 01:42:33 PM 35.3600 -93.2506 321° Northwest 358 412 30,000  Level Memphis Center
Tue 01:43:35 PM 35.4364 -93.3242 322° Northwest 353 406 30,000  Level Memphis Center
Tue 01:44:37 PM 35.5189 -93.4028 322° Northwest 347 399 30,000  Level Memphis Center
Tue 01:45:39 PM 35.5947 -93.4775 321° Northwest 348 400 30,000  Level Memphis Center
Tue 01:46:41 PM 35.6703 -93.5514 322° Northwest 348 400 30,000  Level Memphis Center
Tue 01:47:43 PM 35.7458 -93.6264 321° Northwest 348 400 30,000  Level Memphis Center
Tue 01:48:45 PM 35.8356 -93.7133 322° Northwest 344 396 30,000  Level Memphis Center
Tue 01:49:47 PM 35.9103 -93.7892 321° Northwest 346 398 30,000  Level Memphis Center
Tue 01:50:49 PM 35.9872 -93.8614 323° Northwest 347 399 30,000  Level Memphis Center
Tue 01:51:52 PM 36.0614 -93.9367 321° Northwest 346 398 30,000  Level Memphis Center
Tue 01:52:54 PM 36.1353 -94.0119 321° Northwest 346 398 30,000  Level Memphis Center
Tue 01:53:56 PM 36.2169 -94.0939 321° Northwest 347 399 30,000  Level Memphis Center
Tue 01:54:58 PM 36.2817 -94.1822 312° West 345 397 30,000  Level Memphis Center
Tue 01:56:00 PM 36.3350 -94.2822 304° West 348 400 30,000  Level Memphis Center
Tue 01:57:05 PM 36.4031 -94.3989 305° West 345 397 30,000  Level Kansas City Center
Tue 01:58:00 PM 36.4294 -94.4501 305° West  Level FlightAware Approximate
Tue 01:58:07 PM 36.4567 -94.4967 304° West 344 396 30,000  Level Kansas City Center
Tue 01:59:09 PM 36.5111 -94.5944 305° West 344 396 30,000  Level Kansas City Center
Tue 02:00:11 PM 36.5644 -94.6911 305° West 342 394 30,000  Level Kansas City Center
Tue 02:01:13 PM 36.6194 -94.7886 305° West 344 396 30,000  Level Kansas City Center
Tue 02:02:15 PM 36.6819 -94.9061 304° West 341 392 30,000  Level Kansas City Center
Tue 02:03:17 PM 36.7369 -95.0019 306° West 342 394 30,000  Level Kansas City Center
Tue 02:04:19 PM 36.7894 -95.1000 304° West 341 392 30,000 -240 Level Kansas City Center
Tue 02:05:00 PM 36.7669 -95.0554 305° West  Level FlightAware Approximate
Tue 02:05:22 PM 36.8417 -95.1947 305° West 337 388 29,500  Level Kansas City Center
Tue 02:06:24 PM 36.8906 -95.2864 304° West 326 375 28,400 -1,161 Descending Kansas City Center
Tue 02:07:26 PM 36.9456 -95.3892 304° West 305 351 27,100 -1,210 Descending Kansas City Center
Tue 02:08:28 PM 36.9919 -95.4747 304° West 300 345 25,900 -1,161 Descending Kansas City Center
Tue 02:09:30 PM 37.0386 -95.5617 304° West 300 345 24,700 -968 Descending Kansas City Center
Tue 02:10:32 PM 37.0850 -95.6478 304° West 299 344 23,900 -1,113 Descending Kansas City Center
Tue 02:11:34 PM 37.1311 -95.7333 304° West 297 342 22,400 -1,452 Descending Kansas City Center
Tue 02:12:36 PM 37.1764 -95.8167 304° West 292 336 20,900 -1,548 Descending Kansas City Center
Tue 02:13:38 PM 37.2269 -95.9119 284° West 278 320 19,200 -1,548 Descending Kansas City Center
Tue 02:14:00 PM 37.2330 -95.9470 304° West  Level FlightAware Approximate
Tue 02:14:40 PM 37.2711 -95.9942 304° West 282 325 17,700  Level Kansas City Center
Tue 02:15:42 PM 37.3156 -96.0783 304° West 286 329 16,200 -1,452 Descending Kansas City Center
Tue 02:16:44 PM 37.3592 -96.1614 303° West 285 328 14,700 -1,452 Descending Kansas City Center
Tue 02:17:46 PM 37.4008 -96.2408 303° West 276 318 13,200 -1,452 Descending Kansas City Center
Tue 02:18:48 PM 37.4400 -96.3175 303° West 266 306 11,700 -1,065 Descending Kansas City Center
Tue 02:19:50 PM 37.4814 -96.3950 304° West 266 306 11,000 -339 Descending Kansas City Center
Tue 02:20:52 PM 37.5239 -96.4756 304° West 263 303 11,000  Level Kansas City Center
Tue 02:21:00 PM 37.5681 -96.5572 284° West  Level FlightAware Approximate
Tue 02:21:18 PM 37.5458 -96.5181 303° West 262 302 11,000  Level Kansas City Center
Tue 02:22:00 PM 37.5888 -96.6606 284° West  Level FlightAware Approximate
Tue 02:22:06 PM 37.5742 -96.5875 297° West 267 307 11,000  Level Kansas City Center
Tue 02:22:56 PM 37.5925 -96.6547 289° West 258 297 9,800 -1,574 Descending Kansas City Center
Tue 02:23:07 PM 37.5978 -96.6708 292° West 252 290 9,400 -1,810 Descending Kansas City Center
Tue 02:23:59 PM 37.6158 -96.7350 290° West 247 284 7,900 -1,890 Descending Kansas City Center
Tue 02:24:20 PM 37.6244 -96.7667 289° West 236 272 7,100 -1,839 Descending Kansas City Center
Tue 02:25:01 PM 37.6356 -96.8122 287° West 236 272 6,000 -1,875 Descending Kansas City Center
Tue 02:25:08 PM 37.6392 -96.8278 286° West 229 264 5,600 -1,676 Descending Kansas City Center
Tue 02:26:09 PM 37.6617 -96.9036 291° West 234 269 4,100 -821 Descending Kansas City Center
Tue 02:27:05 PM 37.6789 -96.9622 290° West 229 264 4,000 -90 Descending Kansas City Center
Tue 02:27:16 PM 37.6828 -96.9875 281° West 214 246 4,000  Level Kansas City Center
Tue 02:28:17 PM 37.7022 -97.0531 291° West 203 234 4,000  Level Kansas City Center
Tue 02:29:09 PM 37.7178 -97.1114 289° West 213 245 4,000  Level Kansas City Center

Login

Don't have an account? Register now (free) for customized features, flight alerts, and more!